sensor_id;sensor_type;location;lat;lon;timestamp;pressure;altitude;pressure_sealevel;temperature;humidity
21730;BME280;11027;51.030;13.812;2023-05-29T00:01:13;100514.38;;;16.54;56.42
21730;BME280;11027;51.030;13.812;2023-05-29T00:03:38;100516.50;;;16.52;56.47
21730;BME280;11027;51.030;13.812;2023-05-29T00:06:03;100521.56;;;16.55;55.90
21730;BME280;11027;51.030;13.812;2023-05-29T00:08:29;100524.09;;;16.57;55.85
21730;BME280;11027;51.030;13.812;2023-05-29T00:10:54;100524.50;;;16.54;56.16
21730;BME280;11027;51.030;13.812;2023-05-29T00:13:20;100519.66;;;16.49;56.22
21730;BME280;11027;51.030;13.812;2023-05-29T00:15:45;100520.72;;;16.48;56.47
21730;BME280;11027;51.030;13.812;2023-05-29T00:18:11;100508.84;;;16.41;56.29
21730;BME280;11027;51.030;13.812;2023-05-29T00:20:36;100527.88;;;16.36;56.23
21730;BME280;11027;51.030;13.812;2023-05-29T00:23:03;100515.59;;;16.32;56.34
21730;BME280;11027;51.030;13.812;2023-05-29T00:25:29;100513.09;;;16.30;56.28
21730;BME280;11027;51.030;13.812;2023-05-29T00:27:55;100507.16;;;16.27;56.47
21730;BME280;11027;51.030;13.812;2023-05-29T00:30:20;100503.78;;;16.25;56.59
21730;BME280;11027;51.030;13.812;2023-05-29T00:32:45;100501.44;;;16.22;56.64
21730;BME280;11027;51.030;13.812;2023-05-29T00:35:11;100502.91;;;16.17;56.74
21730;BME280;11027;51.030;13.812;2023-05-29T00:37:36;100503.34;;;16.14;56.63
21730;BME280;11027;51.030;13.812;2023-05-29T00:40:01;100507.56;;;16.10;56.70
21730;BME280;11027;51.030;13.812;2023-05-29T00:42:26;100508.78;;;16.01;56.42
21730;BME280;11027;51.030;13.812;2023-05-29T00:44:51;100510.06;;;15.92;56.53
21730;BME280;11027;51.030;13.812;2023-05-29T00:47:17;100508.16;;;15.86;56.80
21730;BME280;11027;51.030;13.812;2023-05-29T00:49:42;100505.41;;;15.86;56.49
21730;BME280;11027;51.030;13.812;2023-05-29T00:52:09;100500.94;;;15.85;56.53
21730;BME280;11027;51.030;13.812;2023-05-29T00:54:36;100497.97;;;15.79;56.49
21730;BME280;11027;51.030;13.812;2023-05-29T00:57:02;100500.50;;;15.74;56.80
21730;BME280;11027;51.030;13.812;2023-05-29T00:59:32;100498.78;;;15.73;56.46
21730;BME280;11027;51.030;13.812;2023-05-29T01:02:00;100507.41;;;15.70;56.67
21730;BME280;11027;51.030;13.812;2023-05-29T01:04:26;100507.19;;;15.65;56.73
21730;BME280;11027;51.030;13.812;2023-05-29T01:06:51;100506.53;;;15.63;56.86
21730;BME280;11027;51.030;13.812;2023-05-29T01:09:16;100511.56;;;15.53;56.98
21730;BME280;11027;51.030;13.812;2023-05-29T01:12:03;100507.31;;;15.44;56.93
21730;BME280;11027;51.030;13.812;2023-05-29T01:14:38;100501.38;;;15.40;57.26
21730;BME280;11027;51.030;13.812;2023-05-29T01:17:15;100504.75;;;15.35;57.15
21730;BME280;11027;51.030;13.812;2023-05-29T01:20:01;100501.75;;;15.30;56.96
21730;BME280;11027;51.030;13.812;2023-05-29T01:25:11;100505.97;;;15.26;56.96
21730;BME280;11027;51.030;13.812;2023-05-29T01:27:44;100507.03;;;15.25;57.41
21730;BME280;11027;51.030;13.812;2023-05-29T01:30:11;100509.94;;;15.17;57.14
21730;BME280;11027;51.030;13.812;2023-05-29T01:32:36;100510.94;;;15.09;57.59
21730;BME280;11027;51.030;13.812;2023-05-29T01:35:02;100512.16;;;15.07;57.62
21730;BME280;11027;51.030;13.812;2023-05-29T01:37:27;100518.06;;;15.04;57.47
21730;BME280;11027;51.030;13.812;2023-05-29T01:39:53;100520.38;;;15.00;57.49
21730;BME280;11027;51.030;13.812;2023-05-29T01:42:18;100511.69;;;14.96;57.87
21730;BME280;11027;51.030;13.812;2023-05-29T01:44:45;100510.84;;;14.96;57.59
21730;BME280;11027;51.030;13.812;2023-05-29T01:47:11;100508.28;;;14.94;57.69
21730;BME280;11027;51.030;13.812;2023-05-29T01:49:37;100508.06;;;14.89;57.96
21730;BME280;11027;51.030;13.812;2023-05-29T01:52:03;100514.16;;;14.85;57.90
21730;BME280;11027;51.030;13.812;2023-05-29T01:54:28;100510.72;;;14.76;58.38
21730;BME280;11027;51.030;13.812;2023-05-29T01:56:53;100511.13;;;14.73;58.34
21730;BME280;11027;51.030;13.812;2023-05-29T01:59:19;100509.81;;;14.69;58.28
21730;BME280;11027;51.030;13.812;2023-05-29T02:01:47;100506.44;;;14.67;58.33
21730;BME280;11027;51.030;13.812;2023-05-29T02:04:12;100508.53;;;14.65;58.72
21730;BME280;11027;51.030;13.812;2023-05-29T02:06:37;100510.41;;;14.64;58.81
21730;BME280;11027;51.030;13.812;2023-05-29T02:09:03;100510.81;;;14.61;59.04
21730;BME280;11027;51.030;13.812;2023-05-29T02:11:28;100504.88;;;14.57;58.98
21730;BME280;11027;51.030;13.812;2023-05-29T02:13:53;100513.09;;;14.57;58.97
21730;BME280;11027;51.030;13.812;2023-05-29T02:16:19;100515.16;;;14.55;59.21
21730;BME280;11027;51.030;13.812;2023-05-29T02:18:46;100521.06;;;14.52;59.43
21730;BME280;11027;51.030;13.812;2023-05-29T02:21:12;100522.22;;;14.43;59.11
21730;BME280;11027;51.030;13.812;2023-05-29T02:23:37;100525.28;;;14.33;59.13
21730;BME280;11027;51.030;13.812;2023-05-29T02:26:02;100525.50;;;14.32;59.65
21730;BME280;11027;51.030;13.812;2023-05-29T02:28:27;100526.75;;;14.29;59.56
21730;BME280;11027;51.030;13.812;2023-05-29T02:30:53;100536.84;;;14.29;59.43
21730;BME280;11027;51.030;13.812;2023-05-29T02:33:19;100516.97;;;14.20;59.72
21730;BME280;11027;51.030;13.812;2023-05-29T02:35:44;100521.72;;;14.11;59.74
21730;BME280;11027;51.030;13.812;2023-05-29T02:38:10;100527.38;;;14.10;60.04
21730;BME280;11027;51.030;13.812;2023-05-29T02:40:35;100528.25;;;14.10;60.29
21730;BME280;11027;51.030;13.812;2023-05-29T02:43:00;100531.81;;;14.11;59.93
21730;BME280;11027;51.030;13.812;2023-05-29T02:45:25;100532.78;;;14.03;59.88
21730;BME280;11027;51.030;13.812;2023-05-29T02:47:51;100537.63;;;14.01;60.36
21730;BME280;11027;51.030;13.812;2023-05-29T02:50:16;100543.50;;;13.98;60.18
21730;BME280;11027;51.030;13.812;2023-05-29T02:52:41;100548.31;;;13.96;60.31
21730;BME280;11027;51.030;13.812;2023-05-29T02:55:07;100549.94;;;13.90;60.67
21730;BME280;11027;51.030;13.812;2023-05-29T02:57:32;100552.63;;;13.84;60.79
21730;BME280;11027;51.030;13.812;2023-05-29T02:59:58;100555.34;;;13.84;60.64
21730;BME280;11027;51.030;13.812;2023-05-29T03:02:24;100549.88;;;13.84;60.77
21730;BME280;11027;51.030;13.812;2023-05-29T03:04:49;100557.22;;;13.83;60.93
21730;BME280;11027;51.030;13.812;2023-05-29T03:07:16;100560.72;;;13.77;61.10
21730;BME280;11027;51.030;13.812;2023-05-29T03:09:41;100561.97;;;13.74;60.79
21730;BME280;11027;51.030;13.812;2023-05-29T03:12:06;100558.94;;;13.69;61.17
21730;BME280;11027;51.030;13.812;2023-05-29T03:14:32;100568.97;;;13.62;61.14
21730;BME280;11027;51.030;13.812;2023-05-29T03:17:01;100566.25;;;13.62;61.22
21730;BME280;11027;51.030;13.812;2023-05-29T03:19:26;100576.53;;;13.60;61.51
21730;BME280;11027;51.030;13.812;2023-05-29T03:21:52;100581.59;;;13.63;61.04
21730;BME280;11027;51.030;13.812;2023-05-29T03:24:17;100574.44;;;13.62;61.31
21730;BME280;11027;51.030;13.812;2023-05-29T03:26:43;100583.03;;;13.59;61.07
21730;BME280;11027;51.030;13.812;2023-05-29T03:29:08;100577.28;;;13.54;60.94
21730;BME280;11027;51.030;13.812;2023-05-29T03:31:33;100577.41;;;13.46;61.23
21730;BME280;11027;51.030;13.812;2023-05-29T03:33:59;100578.69;;;13.35;61.72
21730;BME280;11027;51.030;13.812;2023-05-29T03:36:24;100581.66;;;13.33;61.73
21730;BME280;11027;51.030;13.812;2023-05-29T03:38:49;100587.47;;;13.30;61.97
21730;BME280;11027;51.030;13.812;2023-05-29T03:41:15;100578.75;;;13.27;62.03
21730;BME280;11027;51.030;13.812;2023-05-29T03:43:40;100573.88;;;13.22;61.89
21730;BME280;11027;51.030;13.812;2023-05-29T03:46:05;100584.31;;;13.18;62.21
21730;BME280;11027;51.030;13.812;2023-05-29T03:48:31;100587.28;;;13.17;61.81
21730;BME280;11027;51.030;13.812;2023-05-29T03:50:56;100578.41;;;13.15;62.59
21730;BME280;11027;51.030;13.812;2023-05-29T03:53:21;100588.97;;;13.18;62.41
21730;BME280;11027;51.030;13.812;2023-05-29T03:55:46;100598.56;;;13.14;62.49
21730;BME280;11027;51.030;13.812;2023-05-29T03:58:12;100593.47;;;13.11;62.33
21730;BME280;11027;51.030;13.812;2023-05-29T04:00:39;100594.44;;;13.18;62.45
21730;BME280;11027;51.030;13.812;2023-05-29T04:03:04;100599.63;;;13.13;62.28
21730;BME280;11027;51.030;13.812;2023-05-29T04:05:30;100608.19;;;13.10;62.57
21730;BME280;11027;51.030;13.812;2023-05-29T04:07:56;100602.72;;;13.10;62.47
21730;BME280;11027;51.030;13.812;2023-05-29T04:10:21;100615.72;;;13.08;62.69
21730;BME280;11027;51.030;13.812;2023-05-29T04:12:47;100615.81;;;12.99;62.63
21730;BME280;11027;51.030;13.812;2023-05-29T04:15:12;100610.91;;;12.95;63.10
21730;BME280;11027;51.030;13.812;2023-05-29T04:17:37;100610.44;;;12.91;63.04
21730;BME280;11027;51.030;13.812;2023-05-29T04:20:03;100611.66;;;12.89;63.17
21730;BME280;11027;51.030;13.812;2023-05-29T04:22:34;100620.38;;;12.84;63.35
21730;BME280;11027;51.030;13.812;2023-05-29T04:24:59;100620.38;;;12.84;63.51
21730;BME280;11027;51.030;13.812;2023-05-29T04:27:25;100621.25;;;12.85;63.68
21730;BME280;11027;51.030;13.812;2023-05-29T04:29:50;100621.25;;;12.85;64.05
21730;BME280;11027;51.030;13.812;2023-05-29T04:32:15;100627.94;;;12.82;64.29
21730;BME280;11027;51.030;13.812;2023-05-29T04:34:40;100620.38;;;12.84;64.08
21730;BME280;11027;51.030;13.812;2023-05-29T04:37:09;100627.41;;;12.87;63.85
21730;BME280;11027;51.030;13.812;2023-05-29T04:39:34;100630.25;;;12.93;64.19
21730;BME280;11027;51.030;13.812;2023-05-29T04:41:59;100636.47;;;13.02;64.02
21730;BME280;11027;51.030;13.812;2023-05-29T04:44:25;100630.44;;;13.07;64.06
21730;BME280;11027;51.030;13.812;2023-05-29T04:46:51;100631.41;;;13.14;63.97
21730;BME280;11027;51.030;13.812;2023-05-29T04:49:17;100635.47;;;13.18;63.46
21730;BME280;11027;51.030;13.812;2023-05-29T04:51:43;100648.97;;;13.19;63.14
21730;BME280;11027;51.030;13.812;2023-05-29T04:54:10;100631.03;;;13.17;62.93
21730;BME280;11027;51.030;13.812;2023-05-29T04:56:36;100632.72;;;13.18;62.71
21730;BME280;11027;51.030;13.812;2023-05-29T04:59:02;100633.78;;;13.17;62.56
21730;BME280;11027;51.030;13.812;2023-05-29T05:01:27;100632.72;;;13.18;62.78
21730;BME280;11027;51.030;13.812;2023-05-29T05:03:54;100628.97;;;13.19;62.73
21730;BME280;11027;51.030;13.812;2023-05-29T05:06:21;100624.69;;;13.16;62.42
21730;BME280;11027;51.030;13.812;2023-05-29T05:08:46;100632.47;;;13.13;62.68
21730;BME280;11027;51.030;13.812;2023-05-29T05:11:12;100633.97;;;13.15;62.45
21730;BME280;11027;51.030;13.812;2023-05-29T05:13:38;100629.16;;;13.17;62.26
21730;BME280;11027;51.030;13.812;2023-05-29T05:16:04;100632.38;;;13.21;62.25
21730;BME280;11027;51.030;13.812;2023-05-29T05:18:29;100625.50;;;13.25;62.42
21730;BME280;11027;51.030;13.812;2023-05-29T05:20:54;100629.25;;;13.24;62.34
21730;BME280;11027;51.030;13.812;2023-05-29T05:23:20;100631.63;;;13.27;61.80
21730;BME280;11027;51.030;13.812;2023-05-29T05:25:45;100632.09;;;13.31;61.62
21730;BME280;11027;51.030;13.812;2023-05-29T05:28:10;100627.28;;;13.33;61.44
21730;BME280;11027;51.030;13.812;2023-05-29T05:30:36;100634.84;;;13.31;61.41
21730;BME280;11027;51.030;13.812;2023-05-29T05:33:01;100628.34;;;13.32;61.80
21730;BME280;11027;51.030;13.812;2023-05-29T05:35:27;100639.78;;;13.35;61.91
21730;BME280;11027;51.030;13.812;2023-05-29T05:37:53;100644.84;;;13.38;61.64
21730;BME280;11027;51.030;13.812;2023-05-29T05:40:18;100639.22;;;13.40;61.40
21730;BME280;11027;51.030;13.812;2023-05-29T05:42:43;100636.66;;;13.38;61.32
21730;BME280;11027;51.030;13.812;2023-05-29T05:45:09;100643.63;;;13.41;61.06
21730;BME280;11027;51.030;13.812;2023-05-29T05:47:34;100640.72;;;13.43;61.14
21730;BME280;11027;51.030;13.812;2023-05-29T05:50:00;100640.81;;;13.49;61.15
21730;BME280;11027;51.030;13.812;2023-05-29T05:52:25;100642.16;;;13.53;61.02
21730;BME280;11027;51.030;13.812;2023-05-29T05:54:55;100644.66;;;13.55;61.01
21730;BME280;11027;51.030;13.812;2023-05-29T05:57:20;100642.59;;;13.57;61.02
21730;BME280;11027;51.030;13.812;2023-05-29T05:59:45;100640.53;;;13.59;61.10
21730;BME280;11027;51.030;13.812;2023-05-29T06:02:11;100641.84;;;13.63;61.07
21730;BME280;11027;51.030;13.812;2023-05-29T06:04:36;100637.69;;;13.67;60.97
21730;BME280;11027;51.030;13.812;2023-05-29T06:07:01;100643.47;;;13.72;60.61
21730;BME280;11027;51.030;13.812;2023-05-29T06:09:26;100636.19;;;13.79;60.31
21730;BME280;11027;51.030;13.812;2023-05-29T06:11:52;100645.50;;;13.85;60.58
21730;BME280;11027;51.030;13.812;2023-05-29T06:14:18;100640.50;;;13.89;60.43
21730;BME280;11027;51.030;13.812;2023-05-29T06:16:43;100646.66;;;13.91;60.43
21730;BME280;11027;51.030;13.812;2023-05-29T06:19:08;100650.34;;;13.98;59.97
21730;BME280;11027;51.030;13.812;2023-05-29T06:21:34;100646.59;;;14.06;60.15
21730;BME280;11027;51.030;13.812;2023-05-29T06:23:59;100643.31;;;14.10;59.89
21730;BME280;11027;51.030;13.812;2023-05-29T06:26:24;100650.13;;;14.14;60.01
21730;BME280;11027;51.030;13.812;2023-05-29T06:28:50;100648.69;;;14.18;59.70
21730;BME280;11027;51.030;13.812;2023-05-29T06:31:15;100651.03;;;14.21;59.81
21730;BME280;11027;51.030;13.812;2023-05-29T06:33:40;100656.13;;;14.25;60.04
21730;BME280;11027;51.030;13.812;2023-05-29T06:36:06;100655.72;;;14.28;59.90
21730;BME280;11027;51.030;13.812;2023-05-29T06:38:31;100657.91;;;14.32;59.53
21730;BME280;11027;51.030;13.812;2023-05-29T06:40:57;100655.41;;;14.37;59.62
21730;BME280;11027;51.030;13.812;2023-05-29T06:43:22;100654.19;;;14.40;59.31
21730;BME280;11027;51.030;13.812;2023-05-29T06:45:47;100659.94;;;14.45;59.26
21730;BME280;11027;51.030;13.812;2023-05-29T06:48:12;100658.13;;;14.52;59.11
21730;BME280;11027;51.030;13.812;2023-05-29T06:50:38;100653.78;;;14.58;59.19
21730;BME280;11027;51.030;13.812;2023-05-29T06:53:03;100666.25;;;14.60;58.73
21730;BME280;11027;51.030;13.812;2023-05-29T06:55:28;100660.38;;;14.64;58.67
21730;BME280;11027;51.030;13.812;2023-05-29T06:57:53;100658.28;;;14.66;58.51
21730;BME280;11027;51.030;13.812;2023-05-29T07:00:19;100664.69;;;14.73;58.32
21730;BME280;11027;51.030;13.812;2023-05-29T07:02:44;100662.00;;;14.79;58.13
21730;BME280;11027;51.030;13.812;2023-05-29T07:05:09;100666.72;;;14.86;57.99
21730;BME280;11027;51.030;13.812;2023-05-29T07:07:35;100664.03;;;14.92;57.87
21730;BME280;11027;51.030;13.812;2023-05-29T07:10:00;100669.78;;;14.97;57.64
21730;BME280;11027;51.030;13.812;2023-05-29T07:12:26;100662.84;;;15.02;57.35
21730;BME280;11027;51.030;13.812;2023-05-29T07:14:51;100660.34;;;15.07;56.75
21730;BME280;11027;51.030;13.812;2023-05-29T07:17:16;100661.69;;;15.11;56.92
21730;BME280;11027;51.030;13.812;2023-05-29T07:19:42;100664.66;;;15.16;56.77
21730;BME280;11027;51.030;13.812;2023-05-29T07:22:07;100667.66;;;15.21;56.45
21730;BME280;11027;51.030;13.812;2023-05-29T07:24:32;100667.25;;;15.24;56.79
21730;BME280;11027;51.030;13.812;2023-05-29T07:26:58;100666.44;;;15.30;56.44
21730;BME280;11027;51.030;13.812;2023-05-29T07:29:23;100671.56;;;15.33;56.49
21730;BME280;11027;51.030;13.812;2023-05-29T07:31:49;100671.13;;;15.36;57.11
21730;BME280;11027;51.030;13.812;2023-05-29T07:34:15;100668.66;;;15.42;56.80
21730;BME280;11027;51.030;13.812;2023-05-29T07:37:02;100670.78;;;15.46;56.86
21730;BME280;11027;51.030;13.812;2023-05-29T07:39:29;100675.69;;;15.51;56.62
21730;BME280;11027;51.030;13.812;2023-05-29T07:41:54;100667.50;;;15.57;56.48
21730;BME280;11027;51.030;13.812;2023-05-29T07:44:21;100665.81;;;15.63;56.47
21730;BME280;11027;51.030;13.812;2023-05-29T07:46:46;100667.13;;;15.67;56.16
21730;BME280;11027;51.030;13.812;2023-05-29T07:49:12;100670.16;;;15.72;56.41
21730;BME280;11027;51.030;13.812;2023-05-29T07:51:37;100663.84;;;15.78;56.03
21730;BME280;11027;51.030;13.812;2023-05-29T07:54:03;100675.72;;;15.86;55.86
21730;BME280;11027;51.030;13.812;2023-05-29T07:56:28;100675.94;;;15.91;55.79
21730;BME280;11027;51.030;13.812;2023-05-29T07:58:54;100678.72;;;15.97;56.19
21730;BME280;11027;51.030;13.812;2023-05-29T08:01:20;100681.53;;;16.04;55.84
21730;BME280;11027;51.030;13.812;2023-05-29T08:03:46;100672.84;;;16.07;55.61
21730;BME280;11027;51.030;13.812;2023-05-29T08:06:11;100676.91;;;16.11;55.74
21730;BME280;11027;51.030;13.812;2023-05-29T08:08:37;100677.13;;;16.16;55.57
21730;BME280;11027;51.030;13.812;2023-05-29T08:11:02;100674.59;;;16.22;55.23
21730;BME280;11027;51.030;13.812;2023-05-29T08:13:29;100674.66;;;16.28;55.17
21730;BME280;11027;51.030;13.812;2023-05-29T08:15:55;100671.72;;;16.36;54.65
21730;BME280;11027;51.030;13.812;2023-05-29T08:18:20;100674.47;;;16.43;54.40
21730;BME280;11027;51.030;13.812;2023-05-29T08:20:46;100669.22;;;16.48;54.51
21730;BME280;11027;51.030;13.812;2023-05-29T08:23:11;100663.94;;;16.53;54.14
21730;BME280;11027;51.030;13.812;2023-05-29T08:25:36;100669.66;;;16.58;54.21
21730;BME280;11027;51.030;13.812;2023-05-29T08:28:01;100667.13;;;16.64;53.96
21730;BME280;11027;51.030;13.812;2023-05-29T08:30:27;100662.06;;;16.67;53.91
21730;BME280;11027;51.030;13.812;2023-05-29T08:32:52;100669.69;;;16.72;53.68
21730;BME280;11027;51.030;13.812;2023-05-29T08:35:17;100654.03;;;16.79;53.03
21730;BME280;11027;51.030;13.812;2023-05-29T08:37:43;100662.75;;;16.89;51.90
21730;BME280;11027;51.030;13.812;2023-05-29T08:40:09;100651.94;;;16.94;51.25
21730;BME280;11027;51.030;13.812;2023-05-29T08:42:36;100647.50;;;17.00;51.09
21730;BME280;11027;51.030;13.812;2023-05-29T08:45:06;100644.13;;;17.05;50.62
21730;BME280;11027;51.030;13.812;2023-05-29T08:47:33;100639.47;;;17.12;50.13
21730;BME280;11027;51.030;13.812;2023-05-29T08:50:00;100638.63;;;17.18;49.85
21730;BME280;11027;51.030;13.812;2023-05-29T08:52:26;100643.50;;;17.29;49.22
21730;BME280;11027;51.030;13.812;2023-05-29T08:54:53;100636.69;;;17.38;49.36
21730;BME280;11027;51.030;13.812;2023-05-29T08:57:19;100635.41;;;17.48;48.63
21730;BME280;11027;51.030;13.812;2023-05-29T08:59:46;100635.38;;;17.61;47.15
21730;BME280;11027;51.030;13.812;2023-05-29T09:02:14;100639.19;;;17.73;45.57
21730;BME280;11027;51.030;13.812;2023-05-29T09:04:41;100641.28;;;17.85;45.48
21730;BME280;11027;51.030;13.812;2023-05-29T09:07:09;100642.13;;;17.92;45.32
21730;BME280;11027;51.030;13.812;2023-05-29T09:09:35;100644.63;;;18.00;45.32
21730;BME280;11027;51.030;13.812;2023-05-29T09:12:00;100643.75;;;18.06;45.40
21730;BME280;11027;51.030;13.812;2023-05-29T09:14:41;100648.81;;;18.09;45.00
21730;BME280;11027;51.030;13.812;2023-05-29T09:17:09;100632.25;;;18.16;45.20
21730;BME280;11027;51.030;13.812;2023-05-29T09:19:35;100634.34;;;18.21;45.35
21730;BME280;11027;51.030;13.812;2023-05-29T09:22:05;100642.78;;;18.26;45.41
21730;BME280;11027;51.030;13.812;2023-05-29T09:24:35;100647.00;;;18.35;44.69
21730;BME280;11027;51.030;13.812;2023-05-29T09:27:04;100644.44;;;18.40;44.10
21730;BME280;11027;51.030;13.812;2023-05-29T09:29:40;100642.06;;;18.44;43.43
21730;BME280;11027;51.030;13.812;2023-05-29T09:32:10;100637.16;;;18.52;43.98
21730;BME280;11027;51.030;13.812;2023-05-29T09:34:36;100635.81;;;18.62;43.54
21730;BME280;11027;51.030;13.812;2023-05-29T09:37:03;100638.28;;;18.70;43.59
21730;BME280;11027;51.030;13.812;2023-05-29T09:39:54;100640.78;;;18.78;43.92
21730;BME280;11027;51.030;13.812;2023-05-29T09:42:19;100635.63;;;18.88;43.31
21730;BME280;11027;51.030;13.812;2023-05-29T09:44:46;100641.97;;;18.95;42.98
21730;BME280;11027;51.030;13.812;2023-05-29T09:47:17;100640.22;;;19.01;42.25
21730;BME280;11027;51.030;13.812;2023-05-29T09:49:43;100644.44;;;19.04;41.69
21730;BME280;11027;51.030;13.812;2023-05-29T09:52:11;100642.31;;;19.06;41.03
21730;BME280;11027;51.030;13.812;2023-05-29T09:54:39;100636.34;;;19.09;41.08
21730;BME280;11027;51.030;13.812;2023-05-29T09:57:07;100630.38;;;19.12;40.86
21730;BME280;11027;51.030;13.812;2023-05-29T09:59:33;100633.31;;;19.17;40.82
21730;BME280;11027;51.030;13.812;2023-05-29T10:02:03;100634.97;;;19.18;41.44
21730;BME280;11027;51.030;13.812;2023-05-29T10:04:30;100630.91;;;19.21;41.19
21730;BME280;11027;51.030;13.812;2023-05-29T10:07:00;100622.34;;;19.29;41.21
21730;BME280;11027;51.030;13.812;2023-05-29T10:09:29;100623.97;;;19.36;40.37
21730;BME280;11027;51.030;13.812;2023-05-29T10:11:55;100631.34;;;19.43;40.13
21730;BME280;11027;51.030;13.812;2023-05-29T10:14:25;100630.19;;;19.50;39.86
21730;BME280;11027;51.030;13.812;2023-05-29T10:16:54;100638.28;;;19.52;40.20
21730;BME280;11027;51.030;13.812;2023-05-29T10:19:26;100638.41;;;19.57;40.51
21730;BME280;11027;51.030;13.812;2023-05-29T10:21:53;100645.97;;;19.68;40.72
21730;BME280;11027;51.030;13.812;2023-05-29T10:24:19;100641.88;;;19.77;39.91
21730;BME280;11027;51.030;13.812;2023-05-29T10:26:48;100637.25;;;19.90;39.89
21730;BME280;11027;51.030;13.812;2023-05-29T10:34:41;100623.22;;;20.22;38.27
21730;BME280;11027;51.030;13.812;2023-05-29T10:37:18;100632.00;;;20.18;38.16
21730;BME280;11027;51.030;13.812;2023-05-29T10:39:47;100624.16;;;20.15;38.55
21730;BME280;11027;51.030;13.812;2023-05-29T10:45:04;100613.38;;;20.26;39.16
21730;BME280;11027;51.030;13.812;2023-05-29T10:47:30;100611.03;;;20.41;39.68
21730;BME280;11027;51.030;13.812;2023-05-29T10:49:59;100615.06;;;20.57;39.87
21730;BME280;11027;51.030;13.812;2023-05-29T10:52:25;100615.13;;;20.69;39.27
21730;BME280;11027;51.030;13.812;2023-05-29T10:54:52;100613.09;;;20.76;38.88
21730;BME280;11027;51.030;13.812;2023-05-29T10:57:20;100613.22;;;20.81;38.63
21730;BME280;11027;51.030;13.812;2023-05-29T10:59:45;100608.31;;;20.83;38.18
21730;BME280;11027;51.030;13.812;2023-05-29T11:02:11;100612.13;;;20.82;38.08
21730;BME280;11027;51.030;13.812;2023-05-29T11:04:41;100601.06;;;20.82;38.16
21730;BME280;11027;51.030;13.812;2023-05-29T11:07:07;100603.63;;;20.95;38.49
21730;BME280;11027;51.030;13.812;2023-05-29T11:09:35;100599.06;;;21.13;38.01
21730;BME280;11027;51.030;13.812;2023-05-29T11:12:10;100601.00;;;21.24;37.29
21730;BME280;11027;51.030;13.812;2023-05-29T11:14:53;100600.03;;;21.30;37.07
21730;BME280;11027;51.030;13.812;2023-05-29T11:17:29;100594.13;;;21.38;37.38
21730;BME280;11027;51.030;13.812;2023-05-29T11:19:56;100598.81;;;21.38;37.23
21730;BME280;11027;51.030;13.812;2023-05-29T11:22:27;100595.09;;;21.32;37.24
21730;BME280;11027;51.030;13.812;2023-05-29T11:24:54;100595.22;;;21.26;37.06
21730;BME280;11027;51.030;13.812;2023-05-29T11:27:21;100593.63;;;21.18;36.57
21730;BME280;11027;51.030;13.812;2023-05-29T11:29:48;100591.00;;;21.11;36.76
21730;BME280;11027;51.030;13.812;2023-05-29T11:32:14;100598.81;;;21.14;37.30
21730;BME280;11027;51.030;13.812;2023-05-29T11:34:43;100584.97;;;21.26;37.21
21730;BME280;11027;51.030;13.812;2023-05-29T11:37:11;100582.56;;;21.42;36.26
21730;BME280;11027;51.030;13.812;2023-05-29T11:39:38;100576.31;;;21.58;36.11
21730;BME280;11027;51.030;13.812;2023-05-29T11:42:03;100586.16;;;21.77;36.19
21730;BME280;11027;51.030;13.812;2023-05-29T11:44:30;100584.19;;;21.90;36.04
21730;BME280;11027;51.030;13.812;2023-05-29T11:47:06;100576.31;;;21.98;35.97
21730;BME280;11027;51.030;13.812;2023-05-29T11:49:33;100578.22;;;22.10;35.83
21730;BME280;11027;51.030;13.812;2023-05-29T11:52:09;100585.28;;;22.17;35.87
21730;BME280;11027;51.030;13.812;2023-05-29T11:54:35;100582.41;;;22.12;35.72
21730;BME280;11027;51.030;13.812;2023-05-29T11:57:02;100584.47;;;22.05;35.71
21730;BME280;11027;51.030;13.812;2023-05-29T11:59:34;100582.41;;;22.12;35.58
21730;BME280;11027;51.030;13.812;2023-05-29T12:02:02;100576.00;;;22.24;35.34
21730;BME280;11027;51.030;13.812;2023-05-29T12:04:28;100586.22;;;22.35;35.09
21730;BME280;11027;51.030;13.812;2023-05-29T12:06:53;100585.91;;;22.48;34.96
21730;BME280;11027;51.030;13.812;2023-05-29T12:09:29;100576.00;;;22.69;34.89
21730;BME280;11027;51.030;13.812;2023-05-29T12:12:04;100569.94;;;22.89;35.14
21730;BME280;11027;51.030;13.812;2023-05-29T12:14:29;100572.16;;;23.04;35.09
21730;BME280;11027;51.030;13.812;2023-05-29T12:16:54;100562.06;;;23.15;34.77
21730;BME280;11027;51.030;13.812;2023-05-29T12:19:20;100561.78;;;23.33;34.92
21730;BME280;11027;51.030;13.812;2023-05-29T12:21:45;100567.16;;;23.62;35.14
21730;BME280;11027;51.030;13.812;2023-05-29T12:24:11;100563.94;;;23.70;35.30
21730;BME280;11027;51.030;13.812;2023-05-29T12:26:36;100566.19;;;23.51;34.38
21730;BME280;11027;51.030;13.812;2023-05-29T12:29:05;100571.28;;;23.38;34.27
21730;BME280;11027;51.030;13.812;2023-05-29T12:31:31;100562.84;;;23.32;34.03
21730;BME280;11027;51.030;13.812;2023-05-29T12:34:10;100553.69;;;23.32;33.68
21730;BME280;11027;51.030;13.812;2023-05-29T12:36:40;100565.00;;;23.25;33.86
21730;BME280;11027;51.030;13.812;2023-05-29T12:39:06;100550.75;;;23.22;33.98
21730;BME280;11027;51.030;13.812;2023-05-29T12:41:34;100551.28;;;23.41;33.95
21730;BME280;11027;51.030;13.812;2023-05-29T12:44:02;100546.00;;;23.61;34.06
21730;BME280;11027;51.030;13.812;2023-05-29T12:46:27;100549.09;;;23.82;33.79
21730;BME280;11027;51.030;13.812;2023-05-29T12:49:11;100548.53;;;24.07;34.08